09/27 12:00 更新

2,000ftに雲が少し
3,000ftに雲が多い
5,000ftに雲が多い

地上風: 340°8kt

上空風(熊谷 12:10更新)
13,000ft: 320° 12kt
10,000ft: 未計測
 7,000ft: 140° 6kt
 3,000ft: 70° 12kt

地上: 22℃
上空: 未計測℃

日没: 17:31

実況天気図


予想天気図


RJTJ 270300Z 34008KT 9999 FEW020 BKN030 BKN050 22/16 Q1018 RMK 1CU020 7SC030 5SC050 A3009=

GPV気象予報
気象庁
日本気象協会

玉淀ダム放流量(1,000m3/sを超えた7時間後にDZ冠水)
太郎衛門橋テレメータ水位(11mでDZ冠水)

skydive.jp